createdAt,value
2023-05-18T00:04:22.036Z,2.72
2023-05-18T00:09:27.637Z,2.60
2023-05-18T00:14:31.838Z,2.80
2023-05-18T00:19:35.486Z,2.60
2023-05-18T00:24:40.879Z,2.60
2023-05-18T00:29:44.542Z,2.95
2023-05-18T00:34:48.230Z,2.78
2023-05-18T00:39:53.539Z,2.67
2023-05-18T00:44:57.259Z,2.78
2023-05-18T00:50:00.904Z,2.83
2023-05-18T00:55:07.268Z,2.80
2023-05-18T01:00:12.092Z,2.90
2023-05-18T01:05:15.789Z,2.92
2023-05-18T01:10:21.424Z,2.63
2023-05-18T01:15:30.820Z,2.88
2023-05-18T01:20:37.834Z,2.90
2023-05-18T01:25:51.048Z,2.60
2023-05-18T01:30:57.316Z,2.60
2023-05-18T01:36:00.995Z,2.67
2023-05-18T01:41:12.232Z,2.75
2023-05-18T01:46:25.219Z,2.85
2023-05-18T01:51:34.511Z,2.90
2023-05-18T01:56:39.850Z,2.70
2023-05-18T02:01:46.164Z,3.08
2023-05-18T02:06:49.912Z,2.83
2023-05-18T02:11:53.745Z,2.80
2023-05-18T02:16:59.138Z,3.00
2023-05-18T02:22:02.740Z,2.50
2023-05-18T02:27:07.333Z,2.50
2023-05-18T02:32:12.731Z,2.60
2023-05-18T02:37:17.204Z,2.63
2023-05-18T02:42:20.920Z,3.40
2023-05-18T02:47:26.331Z,3.47
2023-05-18T02:52:30.056Z,3.60
2023-05-18T02:57:34.332Z,4.07
2023-05-18T03:02:39.738Z,4.00
2023-05-18T03:07:43.496Z,3.95
2023-05-18T03:12:47.323Z,4.32
2023-05-18T03:17:52.673Z,4.20
2023-05-18T03:27:59.272Z,4.03
2023-05-18T03:33:04.951Z,3.60
2023-05-18T03:38:08.663Z,3.47
2023-05-18T03:43:12.308Z,3.40
2023-05-18T03:48:17.648Z,3.67
2023-05-18T03:53:21.429Z,3.90
2023-05-18T03:58:25.140Z,3.70
2023-05-18T04:03:30.693Z,3.47
2023-05-18T04:08:34.579Z,4.18
2023-05-18T04:13:39.617Z,3.78
2023-05-18T04:18:45.046Z,3.80
2023-05-18T04:23:48.737Z,3.90
2023-05-18T04:28:52.339Z,3.85
2023-05-18T04:33:57.736Z,3.70
2023-05-18T04:39:02.243Z,3.67
2023-05-18T04:44:05.925Z,4.07
2023-05-18T04:49:11.213Z,4.30
2023-05-18T04:54:14.851Z,3.97
2023-05-18T04:59:19.137Z,4.07
2023-05-18T05:04:24.691Z,3.80
2023-05-18T05:09:28.385Z,4.20
2023-05-18T05:14:32.722Z,4.35
2023-05-18T05:19:38.081Z,4.18
2023-05-18T05:24:41.746Z,4.05
2023-05-18T05:29:47.979Z,4.15
2023-05-18T05:34:53.290Z,4.35
2023-05-18T05:39:56.926Z,4.10
2023-05-18T05:45:00.584Z,4.05
2023-05-18T05:50:06.626Z,4.50
2023-05-18T05:55:10.423Z,4.43
2023-05-18T06:00:15.197Z,4.38
2023-05-18T06:05:20.474Z,4.43
2023-05-18T06:10:24.189Z,4.15
2023-05-18T06:15:27.967Z,3.88
2023-05-18T06:20:33.556Z,3.80
2023-05-18T06:25:37.213Z,3.72
2023-05-18T06:30:41.001Z,4.20
2023-05-18T06:35:46.351Z,4.40
2023-05-18T06:40:50.036Z,3.90
2023-05-18T06:45:53.722Z,4.00
2023-05-18T06:50:59.060Z,4.43
2023-05-18T06:56:02.711Z,4.05
2023-05-18T07:01:06.488Z,4.30
2023-05-18T07:06:11.941Z,4.07
2023-05-18T07:11:15.823Z,3.92
2023-05-18T07:16:19.535Z,3.80
2023-05-18T07:21:24.988Z,3.95
2023-05-18T07:26:28.668Z,4.43
2023-05-18T07:31:32.418Z,3.78
2023-05-18T07:36:37.806Z,3.90
2023-05-18T07:41:41.413Z,3.93
2023-05-18T07:46:45.089Z,3.92
2023-05-18T07:51:50.448Z,3.95
2023-05-18T07:56:54.057Z,3.77
2023-05-18T08:01:57.726Z,3.60
2023-05-18T08:07:03.051Z,3.42
2023-05-18T08:12:07.143Z,3.90
2023-05-18T08:17:10.952Z,3.45
2023-05-18T08:22:16.517Z,3.92
2023-05-18T08:27:20.151Z,4.00
2023-05-18T08:32:24.010Z,3.97
2023-05-18T08:37:29.645Z,3.80
2023-05-18T08:42:49.249Z,3.70
2023-05-18T08:47:56.539Z,3.60
2023-05-18T08:53:05.757Z,3.58
2023-05-18T08:58:14.661Z,4.25
2023-05-18T09:03:18.588Z,4.05
2023-05-18T09:08:25.134Z,4.07
2023-05-18T09:13:30.147Z,4.20
2023-05-18T09:18:33.854Z,4.30
2023-05-18T09:23:40.052Z,3.75
2023-05-18T09:28:44.614Z,4.10
2023-05-18T09:33:49.130Z,4.20
2023-05-18T09:38:55.369Z,3.95
2023-05-18T09:43:59.027Z,4.07
2023-05-18T09:49:04.480Z,3.83
2023-05-18T09:54:11.183Z,3.90
2023-05-18T09:59:16.328Z,4.03
2023-05-18T10:04:21.440Z,4.00
2023-05-18T10:09:26.837Z,3.67
2023-05-18T10:14:33.915Z,3.77
2023-05-18T10:19:38.991Z,3.70
2023-05-18T10:24:46.540Z,3.72
2023-05-18T10:29:52.072Z,3.95
2023-05-18T10:34:57.818Z,3.70
2023-05-18T10:40:04.390Z,3.78
2023-05-18T10:45:10.269Z,3.90
2023-05-18T10:50:14.932Z,4.10
2023-05-18T10:55:20.621Z,3.50
2023-05-18T11:00:24.423Z,3.70
2023-05-18T11:05:28.566Z,3.80
2023-05-18T11:10:45.394Z,3.60
2023-05-18T11:16:08.286Z,4.32
2023-05-18T11:21:22.490Z,3.90
2023-05-18T11:26:30.586Z,3.83
2023-05-18T11:31:45.451Z,3.55
2023-05-18T11:36:56.866Z,3.92
2023-05-18T11:42:03.619Z,3.75
2023-05-18T11:47:10.097Z,4.13
2023-05-18T11:52:20.061Z,3.60
2023-05-18T11:57:27.477Z,3.70
2023-05-18T12:02:33.356Z,3.33
2023-05-18T12:07:37.949Z,3.50
2023-05-18T12:12:43.851Z,3.80
2023-05-18T12:17:49.123Z,3.30
2023-05-18T12:22:54.813Z,3.40
2023-05-18T12:28:01.722Z,3.63
2023-05-18T12:33:05.591Z,3.78
2023-05-18T12:38:09.299Z,3.58
2023-05-18T12:43:15.913Z,3.88
2023-05-18T12:48:19.664Z,3.50
2023-05-18T12:53:23.369Z,3.20
2023-05-18T12:58:28.650Z,3.50
2023-05-18T13:03:34.522Z,3.33
2023-05-18T13:08:38.588Z,3.30
2023-05-18T13:13:59.155Z,3.60
2023-05-18T13:19:04.618Z,3.17
2023-05-18T13:24:08.703Z,3.07
2023-05-18T13:29:13.970Z,3.38
2023-05-18T13:34:17.613Z,3.20
2023-05-18T13:39:21.275Z,3.58
2023-05-18T13:44:26.576Z,3.20
2023-05-18T13:49:30.264Z,3.37
2023-05-18T13:54:33.937Z,3.80
2023-05-18T13:59:39.256Z,3.50
2023-05-18T14:04:42.875Z,3.20
2023-05-18T14:09:46.560Z,3.70
2023-05-18T14:14:51.887Z,3.63
2023-05-18T14:19:55.542Z,3.50
2023-05-18T14:24:59.356Z,3.50
2023-05-18T14:30:05.209Z,3.90
2023-05-18T14:35:09.687Z,3.60
2023-05-18T14:40:13.733Z,3.20
2023-05-18T14:45:19.183Z,3.20
2023-05-18T14:50:22.967Z,3.30
2023-05-18T14:55:26.720Z,3.03
2023-05-18T15:00:32.375Z,2.70
2023-05-18T15:10:39.252Z,2.60
2023-05-18T15:15:44.567Z,2.50
2023-05-18T15:20:48.217Z,2.75
2023-05-18T15:25:51.939Z,2.47
2023-05-18T15:30:57.224Z,2.60
2023-05-18T15:36:00.955Z,2.65
2023-05-18T15:41:04.681Z,2.60
2023-05-18T15:46:10.041Z,3.17
2023-05-18T15:51:18.634Z,2.42
2023-05-18T15:56:23.032Z,2.78
2023-05-18T16:01:28.432Z,2.40
2023-05-18T16:11:35.211Z,2.15
2023-05-18T16:16:40.574Z,2.30
2023-05-18T16:21:44.329Z,2.28
2023-05-18T16:26:48.054Z,2.30
2023-05-18T16:31:53.409Z,2.50
2023-05-18T16:36:57.159Z,2.63
2023-05-18T16:42:00.788Z,2.65
2023-05-18T16:47:06.315Z,2.60
2023-05-18T16:52:09.960Z,2.70
2023-05-18T16:57:13.708Z,2.60
2023-05-18T17:02:20.026Z,3.08
2023-05-18T17:07:24.199Z,2.70
2023-05-18T17:12:27.906Z,2.90
2023-05-18T17:17:33.291Z,2.58
2023-05-18T17:22:37.555Z,2.70
2023-05-18T17:27:41.269Z,2.37
2023-05-18T17:32:46.640Z,2.67
2023-05-18T17:37:50.287Z,2.65
2023-05-18T17:42:53.954Z,2.60
2023-05-18T17:47:59.303Z,2.67
2023-05-18T17:53:03.026Z,3.10
2023-05-18T17:58:06.701Z,2.75
2023-05-18T18:03:12.139Z,3.00
2023-05-18T18:08:15.909Z,3.58
2023-05-18T18:13:19.597Z,2.70
2023-05-18T18:18:24.858Z,2.85
2023-05-18T18:23:28.517Z,2.42
2023-05-18T18:28:32.729Z,2.40
2023-05-18T18:33:38.054Z,3.00
2023-05-18T18:38:41.684Z,3.10
2023-05-18T18:43:45.561Z,2.60
2023-05-18T18:48:50.937Z,2.90
2023-05-18T18:53:54.583Z,2.83
2023-05-18T18:58:58.200Z,3.00
2023-05-18T19:04:03.486Z,3.08
2023-05-18T19:09:07.136Z,2.80
2023-05-18T19:14:10.814Z,2.80
2023-05-18T19:19:18.860Z,3.17
2023-05-18T19:24:22.613Z,3.00
2023-05-18T19:29:26.257Z,2.97
2023-05-18T19:34:31.578Z,3.10
2023-05-18T19:39:35.887Z,2.90
2023-05-18T19:44:39.554Z,3.00
2023-05-18T19:49:44.806Z,2.80
2023-05-18T19:54:48.463Z,3.22
2023-05-18T19:59:52.123Z,3.25
2023-05-18T20:04:57.450Z,3.20
2023-05-18T20:10:01.180Z,2.90
2023-05-18T20:15:05.486Z,2.80
2023-05-18T20:20:11.322Z,3.10
2023-05-18T20:25:15.131Z,3.13
2023-05-18T20:30:18.853Z,2.78
2023-05-18T20:35:24.893Z,2.90
2023-05-18T20:40:29.129Z,3.13
2023-05-18T20:45:33.049Z,2.90
2023-05-18T20:50:38.395Z,2.80
2023-05-18T20:55:42.096Z,2.80
2023-05-18T21:00:45.876Z,3.10
2023-05-18T21:05:51.175Z,3.33
2023-05-18T21:10:55.712Z,2.70
2023-05-18T21:16:00.334Z,2.10
2023-05-18T21:21:05.853Z,2.13
2023-05-18T21:26:09.589Z,2.10
2023-05-18T21:31:13.355Z,2.20
2023-05-18T21:36:20.908Z,2.20
2023-05-18T21:41:24.579Z,2.20
2023-05-18T21:46:28.654Z,1.90
2023-05-18T21:51:34.087Z,2.20
2023-05-18T21:56:37.857Z,1.80
2023-05-18T22:01:41.664Z,2.10
2023-05-18T22:06:47.640Z,1.98
2023-05-18T22:11:51.287Z,2.10
2023-05-18T22:16:55.033Z,2.00
2023-05-18T22:22:00.329Z,2.28
2023-05-18T22:27:04.103Z,2.00
2023-05-18T22:32:08.811Z,2.27
2023-05-18T22:37:14.689Z,2.25
2023-05-18T22:42:18.791Z,1.90
2023-05-18T22:47:22.453Z,2.25
2023-05-18T22:52:27.796Z,2.00
2023-05-18T22:57:31.488Z,2.08
2023-05-18T23:02:35.208Z,2.10
2023-05-18T23:07:40.486Z,1.90
2023-05-18T23:12:44.120Z,2.40
2023-05-18T23:17:47.813Z,2.00
2023-05-18T23:22:53.326Z,2.00
2023-05-18T23:27:57.021Z,2.10
2023-05-18T23:33:01.501Z,1.83
2023-05-18T23:38:09.958Z,2.00
2023-05-18T23:43:14.129Z,2.03
2023-05-18T23:48:18.326Z,2.20
2023-05-18T23:53:24.224Z,1.98
2023-05-18T23:58:29.785Z,2.10
